Time;durP1;ratioP1;P1;durP2;ratioP2;P2;SDS_P1;SDS_P2;PMS_P1;PMS_P2;Temp;Humidity;BMP_temperature;BMP_pressure;BME280_temperature;BME280_humidity;BME280_pressure;Samples;Min_cycle;Max_cycle;Signal;HPM_P1;HPM_P2
2022/10/11 00:00:31;;;;;;;12.57;4.07;;;9.60;99.90;;;;;;5034962;28;25068;-70
2022/10/11 00:02:57;;;;;;;10.45;3.47;;;9.60;99.90;;;;;;5029218;28;25047;-71
2022/10/11 00:05:23;;;;;;;15.05;3.60;;;9.60;99.90;;;;;;5032613;28;25116;-71
2022/10/11 00:07:48;;;;;;;11.27;4.03;;;9.40;99.90;;;;;;5032513;28;25107;-72
2022/10/11 00:10:14;;;;;;;15.23;3.85;;;9.50;99.90;;;;;;5033801;28;25064;-70
2022/10/11 00:12:40;;;;;;;6.18;3.38;;;9.50;99.90;;;;;;5026482;28;25096;-71
2022/10/11 00:15:08;;;;;;;14.52;3.85;;;9.50;99.90;;;;;;5030375;28;25095;-72
2022/10/11 00:17:34;;;;;;;22.48;4.47;;;9.50;99.90;;;;;;5022278;28;25059;-72
2022/10/11 00:19:59;;;;;;;12.50;3.30;;;9.40;99.90;;;;;;5032381;28;25100;-71
2022/10/11 00:22:25;;;;;;;10.88;3.78;;;9.50;99.90;;;;;;5033691;28;25099;-73
2022/10/11 00:24:51;;;;;;;15.02;3.38;;;9.50;99.90;;;;;;5025286;28;25061;-72
2022/10/11 00:27:17;;;;;;;12.10;3.88;;;9.50;99.90;;;;;;5036806;28;25113;-71
2022/10/11 00:29:43;;;;;;;10.25;3.63;;;9.50;99.90;;;;;;5012920;28;25088;-72
2022/10/11 00:32:09;;;;;;;11.10;3.25;;;9.50;99.90;;;;;;5031220;28;25096;-72
2022/10/11 00:34:34;;;;;;;13.18;3.38;;;9.40;99.90;;;;;;5029395;28;25080;-70
2022/10/11 00:37:00;;;;;;;13.50;3.53;;;9.40;99.90;;;;;;5029098;28;25147;-71
2022/10/11 00:39:25;;;;;;;13.85;3.55;;;9.40;99.90;;;;;;5025349;28;25111;-71
2022/10/11 00:41:51;;;;;;;11.55;3.17;;;9.40;99.90;;;;;;5009103;28;25097;-70
2022/10/11 00:44:23;;;;;;;8.93;4.03;;;9.40;99.90;;;;;;5023579;28;25074;-69
2022/10/11 00:47:04;;;;;;;15.70;3.60;;;9.30;99.90;;;;;;5025939;28;25514;-72
2022/10/11 00:49:37;;;;;;;7.22;3.53;;;9.30;99.90;;;;;;5022632;28;25081;-71
2022/10/11 00:52:30;;;;;;;12.02;3.22;;;9.40;99.90;;;;;;5025415;28;25075;-72
2022/10/11 00:54:57;;;;;;;;;;;9.50;99.90;;;;;;5018667;28;25067;-72
2022/10/11 00:57:26;;;;;;;10.23;3.22;;;9.40;99.90;;;;;;5027083;28;24166;-71
2022/10/11 00:59:53;;;;;;;20.50;3.58;;;9.30;99.90;;;;;;5026325;28;25057;-70
2022/10/11 01:02:21;;;;;;;12.55;3.30;;;9.40;99.90;;;;;;5021590;28;25082;-72
2022/10/11 01:04:48;;;;;;;8.65;3.25;;;9.30;99.90;;;;;;5025223;28;25074;-73
2022/10/11 01:07:15;;;;;;;12.18;3.50;;;9.30;99.90;;;;;;5023812;28;25069;-71
2022/10/11 01:09:41;;;;;;;11.77;3.38;;;9.40;99.90;;;;;;5022761;28;25044;-72
2022/10/11 01:12:18;;;;;;;15.77;3.53;;;9.40;99.90;;;;;;5023698;28;25083;-71
2022/10/11 01:15:13;;;;;;;17.02;3.35;;;9.60;99.90;;;;;;5023363;28;25067;-73
2022/10/11 01:18:17;;;;;;;14.02;3.08;;;9.50;99.90;;;;;;5023930;28;25078;-73
2022/10/11 01:21:12;;;;;;;10.90;3.15;;;9.30;99.90;;;;;;5006424;28;25129;-71
2022/10/11 01:23:43;;;;;;;10.80;3.30;;;9.40;99.90;;;;;;5024747;28;25103;-71
2022/10/11 01:26:49;;;;;;;29.73;5.07;;;9.40;99.90;;;;;;5025660;28;25058;-72
2022/10/11 01:29:45;;;;;;;15.43;3.63;;;9.30;99.90;;;;;;5032256;28;25062;-73
2022/10/11 01:32:26;;;;;;;10.10;3.28;;;9.30;99.90;;;;;;5033124;28;25108;-70
2022/10/11 01:34:58;;;;;;;9.35;3.35;;;9.30;99.90;;;;;;5028892;28;25069;-72
2022/10/11 01:37:35;;;;;;;19.00;4.05;;;9.10;99.90;;;;;;5028774;28;25148;-71
2022/10/11 01:40:08;;;;;;;10.80;2.58;;;9.10;99.90;;;;;;5021505;28;24891;-71
2022/10/11 01:42:37;;;;;;;12.68;3.03;;;9.10;99.90;;;;;;5026870;28;25069;-72
2022/10/11 01:45:04;;;;;;;8.68;3.45;;;9.10;99.90;;;;;;5026926;28;25156;-71
2022/10/11 01:47:30;;;;;;;6.93;3.15;;;9.10;99.90;;;;;;5027201;28;25074;-71
2022/10/11 01:49:58;;;;;;;11.63;3.65;;;9.20;99.90;;;;;;5025790;28;25056;-72
2022/10/11 01:52:27;;;;;;;10.52;3.25;;;9.20;99.90;;;;;;5009378;28;25074;-70
2022/10/11 01:55:10;;;;;;;10.77;4.07;;;9.10;99.90;;;;;;5008416;28;25154;-71
2022/10/11 01:57:36;;;;;;;7.95;2.83;;;9.10;99.90;;;;;;5025265;28;25079;-71
2022/10/11 02:00:23;;;;;;;9.40;3.53;;;9.10;99.90;;;;;;5024715;28;25156;-71
2022/10/11 02:03:16;;;;;;;13.10;3.88;;;9.10;99.90;;;;;;5026223;28;25075;-71
2022/10/11 02:06:04;;;;;;;10.68;3.67;;;8.90;99.90;;;;;;5007320;28;25116;-70
2022/10/11 02:08:54;;;;;;;11.77;3.42;;;9.00;99.90;;;;;;5021358;28;25095;-72
2022/10/11 02:11:31;;;;;;;9.25;3.63;;;9.00;99.90;;;;;;5021249;28;25059;-71
2022/10/11 02:14:08;;;;;;;11.48;3.67;;;8.90;99.90;;;;;;5023267;28;25061;-73
2022/10/11 02:17:00;;;;;;;19.20;3.75;;;9.00;99.90;;;;;;5005473;28;25051;-71
2022/10/11 02:19:29;;;;;;;11.60;3.47;;;8.90;99.90;;;;;;5023005;28;25095;-72
2022/10/11 02:22:01;;;;;;;8.27;2.90;;;9.10;99.90;;;;;;5021825;28;25072;-72
2022/10/11 02:24:32;;;;;;;11.35;3.58;;;9.20;99.90;;;;;;5020700;28;25081;-70
2022/10/11 02:27:00;;;;;;;11.35;3.08;;;9.00;99.90;;;;;;5016287;28;25052;-70
2022/10/11 02:29:29;;;;;;;9.73;2.90;;;9.00;99.90;;;;;;5023120;28;25081;-74
2022/10/11 02:31:57;;;;;;;9.18;3.10;;;9.00;99.90;;;;;;5024945;28;25070;-71
2022/10/11 02:34:25;;;;;;;13.32;3.85;;;9.20;99.90;;;;;;5015709;28;25145;-71
2022/10/11 02:37:10;;;;;;;10.00;2.55;;;9.10;99.90;;;;;;5022491;28;25065;-73
2022/10/11 02:39:58;;;;;;;12.32;3.45;;;9.10;99.90;;;;;;5017294;28;25082;-71
2022/10/11 02:42:32;;;;;;;15.60;3.60;;;8.90;99.90;;;;;;5024834;28;25150;-70
2022/10/11 02:45:17;;;;;;;12.45;3.55;;;9.00;99.90;;;;;;5018470;28;25064;-71
2022/10/11 02:47:43;;;;;;;12.85;2.80;;;8.90;99.90;;;;;;5019616;28;25076;-71
2022/10/11 02:50:13;;;;;;;11.10;3.10;;;9.00;99.90;;;;;;5024802;28;24999;-71
2022/10/11 02:52:39;;;;;;;8.65;3.80;;;9.00;99.90;;;;;;5006950;28;25151;-71
2022/10/11 02:55:05;;;;;;;10.48;2.70;;;9.00;99.90;;;;;;5023528;28;25087;-71
2022/10/11 02:57:31;;;;;;;12.45;2.35;;;8.90;99.90;;;;;;5025987;28;25062;-71
2022/10/11 02:59:56;;;;;;;7.38;2.72;;;8.90;99.90;;;;;;5025799;28;25081;-73
2022/10/11 03:02:22;;;;;;;17.27;3.13;;;9.00;99.90;;;;;;5026026;28;25072;-72
2022/10/11 03:04:47;;;;;;;11.43;2.38;;;8.80;99.90;;;;;;5031717;28;25054;-72
2022/10/11 03:07:13;;;;;;;13.27;3.67;;;8.90;99.90;;;;;;5035936;28;25064;-73
2022/10/11 03:09:39;;;;;;;11.20;2.80;;;8.90;99.90;;;;;;5029370;28;25067;-72
2022/10/11 03:12:05;;;;;;;9.35;3.35;;;8.80;99.90;;;;;;5025636;28;25098;-73
2022/10/11 03:14:30;;;;;;;16.88;4.10;;;8.70;99.90;;;;;;5022273;28;25060;-71
2022/10/11 03:16:56;;;;;;;11.98;3.33;;;8.80;99.90;;;;;;5022647;28;25082;-71
2022/10/11 03:19:21;;;;;;;5.55;2.47;;;8.70;99.90;;;;;;5023962;28;25071;-72
2022/10/11 03:21:47;;;;;;;7.93;2.50;;;8.80;99.90;;;;;;5018698;28;25109;-72
2022/10/11 03:24:13;;;;;;;10.10;2.85;;;8.80;99.90;;;;;;5006706;28;25144;-72
2022/10/11 03:26:38;;;;;;;12.48;3.10;;;8.70;99.90;;;;;;5021040;28;25082;-72
2022/10/11 03:29:04;;;;;;;6.25;2.20;;;8.70;99.90;;;;;;5023893;28;25070;-72
2022/10/11 03:31:29;;;;;;;9.13;2.80;;;8.90;99.90;;;;;;5023173;28;25137;-71
2022/10/11 03:33:55;;;;;;;11.75;2.40;;;8.80;99.90;;;;;;5007868;28;25088;-70
2022/10/11 03:36:20;;;;;;;9.52;2.67;;;8.70;99.90;;;;;;5023275;28;25106;-71
2022/10/11 03:38:46;;;;;;;12.70;3.13;;;8.80;99.90;;;;;;5023631;28;25054;-71
2022/10/11 03:41:11;;;;;;;7.85;2.75;;;8.80;99.90;;;;;;5018555;28;25066;-73
2022/10/11 03:43:37;;;;;;;13.43;3.50;;;8.70;99.90;;;;;;5021428;28;25073;-72
2022/10/11 03:46:03;;;;;;;8.93;2.35;;;8.70;99.90;;;;;;5007391;28;25124;-71
2022/10/11 03:48:28;;;;;;;6.57;2.38;;;8.70;99.90;;;;;;5024697;28;25085;-71
2022/10/11 03:50:54;;;;;;;10.93;2.50;;;8.60;99.90;;;;;;5006666;28;25083;-73
2022/10/11 03:53:19;;;;;;;9.23;2.53;;;8.60;99.90;;;;;;5023609;28;25083;-72
2022/10/11 03:55:45;;;;;;;2.60;2.10;;;8.60;99.90;;;;;;5002615;28;25054;-72
2022/10/11 03:58:11;;;;;;;11.90;2.60;;;8.60;99.90;;;;;;5024679;28;25146;-72
2022/10/11 04:00:36;;;;;;;14.00;2.97;;;8.60;99.90;;;;;;5018323;28;25063;-72
2022/10/11 04:03:02;;;;;;;8.27;2.45;;;8.60;99.90;;;;;;5017447;28;25107;-72
2022/10/11 04:05:29;;;;;;;11.77;3.30;;;8.50;99.90;;;;;;5024840;28;25089;-72
2022/10/11 04:07:54;;;;;;;5.28;2.50;;;8.50;99.90;;;;;;5027289;28;25058;-72
2022/10/11 04:10:20;;;;;;;6.22;2.72;;;8.50;99.90;;;;;;5017416;28;25065;-72
2022/10/11 04:12:46;;;;;;;11.77;2.72;;;8.50;99.90;;;;;;5020118;28;25092;-71
2022/10/11 04:15:12;;;;;;;9.40;3.13;;;8.50;99.90;;;;;;5000329;28;25071;-73
2022/10/11 04:17:38;;;;;;;5.72;2.50;;;8.50;99.90;;;;;;5019533;28;25063;-72
2022/10/11 04:20:05;;;;;;;10.60;2.75;;;8.40;99.90;;;;;;5021569;28;25065;-72
2022/10/11 04:22:31;;;;;;;14.77;3.28;;;8.50;99.90;;;;;;5024465;28;25081;-72
2022/10/11 04:24:57;;;;;;;9.90;2.45;;;8.40;99.90;;;;;;5025305;28;25074;-73
2022/10/11 04:27:22;;;;;;;5.65;2.35;;;8.40;99.90;;;;;;5017117;28;25061;-73
2022/10/11 04:29:48;;;;;;;8.65;2.72;;;8.40;99.90;;;;;;5022020;28;25098;-73
2022/10/11 04:32:13;;;;;;;6.60;2.63;;;8.40;99.90;;;;;;5017143;28;25152;-74
2022/10/11 04:34:39;;;;;;;11.85;2.40;;;8.60;99.90;;;;;;5020802;28;25061;-71
2022/10/11 04:37:04;;;;;;;13.77;2.90;;;8.50;99.90;;;;;;5017858;28;25084;-74
2022/10/11 04:39:30;;;;;;;8.13;2.67;;;8.40;99.90;;;;;;5013430;28;25055;-72
2022/10/11 04:41:55;;;;;;;11.15;2.20;;;8.50;99.90;;;;;;5014194;28;25083;-73
2022/10/11 04:44:21;;;;;;;7.72;2.20;;;8.50;99.90;;;;;;5011820;28;25140;-71
2022/10/11 04:46:46;;;;;;;9.13;2.60;;;8.60;99.90;;;;;;5023544;28;25081;-72
2022/10/11 04:49:12;;;;;;;8.93;2.45;;;8.60;99.90;;;;;;5016214;28;25070;-72
2022/10/11 04:51:38;;;;;;;14.20;3.22;;;8.50;99.90;;;;;;5019869;28;25063;-72
2022/10/11 04:54:03;;;;;;;10.02;2.78;;;8.40;99.90;;;;;;5023897;28;25089;-72
2022/10/11 04:56:29;;;;;;;10.93;3.30;;;8.40;99.90;;;;;;5022330;28;25107;-71
2022/10/11 04:58:55;;;;;;;4.05;2.35;;;8.40;99.90;;;;;;5018558;28;25057;-72
2022/10/11 05:01:20;;;;;;;6.63;1.95;;;8.40;99.90;;;;;;5016983;28;25136;-71
2022/10/11 05:03:46;;;;;;;4.65;2.28;;;8.40;99.90;;;;;;5021254;28;25069;-73
2022/10/11 05:06:12;;;;;;;8.85;2.50;;;8.40;99.90;;;;;;5026407;28;25136;-75
2022/10/11 05:08:37;;;;;;;6.97;2.78;;;8.50;99.90;;;;;;4994566;28;25064;-72
2022/10/11 05:11:06;;;;;;;8.95;2.67;;;8.50;99.90;;;;;;5026065;28;25139;-73
2022/10/11 05:13:33;;;;;;;9.20;2.92;;;8.70;99.90;;;;;;5027404;28;25061;-72
2022/10/11 05:16:00;;;;;;;4.03;2.13;;;8.60;99.90;;;;;;5021109;28;25299;-73
2022/10/11 05:18:26;;;;;;;8.35;3.42;;;8.60;99.90;;;;;;5025386;28;25070;-71
2022/10/11 05:21:04;;;;;;;10.75;2.97;;;8.60;99.90;;;;;;5021282;28;25055;-75
2022/10/11 05:23:31;;;;;;;8.18;2.60;;;8.60;99.90;;;;;;5007080;28;25072;-72
2022/10/11 05:25:57;;;;;;;8.48;3.03;;;8.50;99.90;;;;;;5020076;28;25072;-72
2022/10/11 05:28:23;;;;;;;7.57;3.67;;;8.50;99.90;;;;;;5017457;28;25105;-72
2022/10/11 05:30:48;;;;;;;9.90;3.47;;;8.60;99.90;;;;;;5018656;28;25101;-73
2022/10/11 05:33:14;;;;;;;12.20;3.38;;;8.70;99.90;;;;;;5025718;28;25114;-73
2022/10/11 05:35:39;;;;;;;11.80;3.55;;;8.60;99.90;;;;;;5025948;28;25049;-72
2022/10/11 05:38:05;;;;;;;6.63;2.50;;;8.60;99.90;;;;;;5017735;28;25100;-72
2022/10/11 05:40:32;;;;;;;11.27;2.53;;;8.60;99.90;;;;;;5025102;28;25056;-72
2022/10/11 05:42:57;;;;;;;9.93;3.17;;;8.60;99.90;;;;;;5016771;28;25105;-73
2022/10/11 05:45:23;;;;;;;6.40;2.50;;;8.50;99.90;;;;;;5019534;28;25091;-74
2022/10/11 05:47:49;;;;;;;6.97;2.55;;;8.60;99.90;;;;;;5018641;28;25063;-72
2022/10/11 05:50:14;;;;;;;7.30;2.90;;;8.70;99.90;;;;;;5029629;28;25065;-75
2022/10/11 05:52:40;;;;;;;8.38;2.65;;;8.70;99.90;;;;;;5026072;28;25150;-72
2022/10/11 05:55:06;;;;;;;9.85;3.13;;;8.50;99.90;;;;;;5032059;28;25086;-72
2022/10/11 05:57:31;;;;;;;8.70;2.72;;;8.50;99.90;;;;;;5032551;28;25118;-72
2022/10/11 05:59:57;;;;;;;9.55;2.92;;;8.60;99.90;;;;;;5035536;28;25150;-73
2022/10/11 06:02:22;;;;;;;6.15;2.47;;;8.60;99.90;;;;;;5029522;28;25155;-71
2022/10/11 06:04:48;;;;;;;12.23;3.70;;;8.70;99.90;;;;;;5023767;28;25133;-71
2022/10/11 06:07:13;;;;;;;11.93;2.90;;;8.60;99.90;;;;;;5020878;28;25070;-70
2022/10/11 06:09:39;;;;;;;8.30;3.10;;;8.70;99.90;;;;;;5025112;28;25088;-71
2022/10/11 06:12:05;;;;;;;5.47;2.30;;;8.70;99.90;;;;;;5029330;28;25094;-70
2022/10/11 06:14:31;;;;;;;11.32;4.88;;;8.70;99.90;;;;;;5005732;28;25027;-71
2022/10/11 06:16:56;;;;;;;14.07;4.40;;;8.70;99.90;;;;;;5012966;28;25063;-69
2022/10/11 06:19:22;;;;;;;14.15;4.20;;;8.70;99.90;;;;;;5019167;28;25150;-70
2022/10/11 06:21:48;;;;;;;11.70;3.47;;;8.70;99.90;;;;;;5010081;28;25048;-71
2022/10/11 06:24:14;;;;;;;5.50;2.75;;;8.80;99.90;;;;;;5028499;28;25085;-71
2022/10/11 06:26:39;;;;;;;8.55;3.25;;;8.80;99.90;;;;;;5027550;28;25093;-70
2022/10/11 06:29:05;;;;;;;6.43;2.75;;;8.80;99.90;;;;;;5026398;28;25056;-71
2022/10/11 06:31:31;;;;;;;9.20;3.42;;;8.80;99.90;;;;;;5023426;28;25156;-72
2022/10/11 06:33:57;;;;;;;5.38;2.90;;;8.90;99.90;;;;;;5021078;28;25150;-71
2022/10/11 06:36:24;;;;;;;15.40;3.75;;;9.00;99.90;;;;;;5023865;28;25098;-72
2022/10/11 06:38:53;;;;;;;5.93;3.30;;;9.20;99.90;;;;;;5023773;28;25097;-71
2022/10/11 06:41:24;;;;;;;7.82;3.13;;;9.30;99.90;;;;;;5022912;28;25101;-71
2022/10/11 06:43:50;;;;;;;8.20;3.10;;;9.40;99.90;;;;;;5005608;28;25048;-73
2022/10/11 06:46:18;;;;;;;9.50;3.80;;;9.60;99.90;;;;;;5014643;28;25050;-72
2022/10/11 06:48:45;;;;;;;8.63;3.08;;;9.70;99.90;;;;;;4997294;28;25076;-71
2022/10/11 06:51:12;;;;;;;8.07;3.08;;;9.80;99.90;;;;;;5022480;28;25163;-71
2022/10/11 06:53:38;;;;;;;11.07;3.08;;;10.00;99.90;;;;;;5015948;28;25092;-72
2022/10/11 06:56:06;;;;;;;14.63;3.55;;;10.00;99.90;;;;;;5014272;28;25112;-71
2022/10/11 06:58:32;;;;;;;11.50;4.80;;;10.00;99.90;;;;;;5022017;28;25062;-72
2022/10/11 07:01:07;;;;;;;13.57;4.90;;;10.10;99.90;;;;;;5021851;28;25081;-71
2022/10/11 07:03:33;;;;;;;10.60;4.50;;;10.20;99.90;;;;;;5027623;28;25141;-72
2022/10/11 07:06:00;;;;;;;12.85;4.25;;;10.10;99.90;;;;;;5027574;28;25059;-72
2022/10/11 07:08:26;;;;;;;10.63;4.38;;;10.20;99.90;;;;;;5016041;28;25071;-71
2022/10/11 07:10:51;;;;;;;11.98;4.40;;;10.10;99.90;;;;;;5028635;28;25083;-72
2022/10/11 07:13:17;;;;;;;10.55;4.80;;;10.10;99.90;;;;;;5024164;28;25087;-73
2022/10/11 07:15:42;;;;;;;9.43;4.22;;;10.20;99.90;;;;;;5022008;28;25069;-71
2022/10/11 07:18:08;;;;;;;13.38;4.63;;;10.30;99.90;;;;;;5021311;28;25101;-72
2022/10/11 07:20:34;;;;;;;10.32;4.30;;;10.30;99.90;;;;;;5025765;28;25114;-72
2022/10/11 07:23:00;;;;;;;11.40;4.25;;;10.50;99.90;;;;;;5022327;28;25070;-72
2022/10/11 07:25:26;;;;;;;7.60;3.90;;;10.70;99.90;;;;;;5031377;28;25142;-71
2022/10/11 07:27:51;;;;;;;12.73;5.75;;;10.80;99.90;;;;;;5029559;28;25084;-73
2022/10/11 07:30:17;;;;;;;19.65;4.63;;;11.00;99.90;;;;;;5023851;28;25120;-72
2022/10/11 07:32:42;;;;;;;11.80;4.70;;;11.10;99.90;;;;;;5022187;28;25112;-73
2022/10/11 07:35:08;;;;;;;13.38;4.13;;;11.30;99.90;;;;;;5018581;28;25132;-71
2022/10/11 07:37:33;;;;;;;7.80;3.75;;;11.30;99.90;;;;;;5020729;28;25144;-72
2022/10/11 07:39:59;;;;;;;18.33;4.97;;;11.50;99.90;;;;;;5018312;28;25070;-71
2022/10/11 07:42:24;;;;;;;16.15;5.07;;;11.50;99.90;;;;;;5019099;28;25077;-70
2022/10/11 07:44:50;;;;;;;11.18;4.35;;;11.50;99.90;;;;;;5020367;28;25404;-73
2022/10/11 07:47:15;;;;;;;17.02;5.63;;;11.60;99.90;;;;;;5014002;28;25064;-72
2022/10/11 07:49:41;;;;;;;14.65;4.70;;;11.70;99.90;;;;;;5015942;28;25068;-72
2022/10/11 07:52:06;;;;;;;16.38;5.35;;;11.70;99.90;;;;;;5009768;28;25067;-73
2022/10/11 07:54:33;;;;;;;14.32;4.60;;;11.70;99.90;;;;;;5019211;28;25069;-71
2022/10/11 07:56:59;;;;;;;9.57;4.75;;;11.80;99.90;;;;;;5027226;28;25058;-72
2022/10/11 07:59:24;;;;;;;13.77;5.22;;;12.00;99.90;;;;;;5024565;28;25129;-71
2022/10/11 08:01:50;;;;;;;10.00;4.38;;;12.00;99.90;;;;;;5026441;28;25058;-71
2022/10/11 08:04:15;;;;;;;10.73;4.25;;;12.20;99.90;;;;;;5026680;28;25056;-74
2022/10/11 08:06:41;;;;;;;16.08;5.65;;;12.40;99.90;;;;;;5022506;28;25060;-73
2022/10/11 08:09:08;;;;;;;15.68;4.57;;;12.70;99.90;;;;;;5025220;28;25064;-73
2022/10/11 08:11:35;;;;;;;21.85;4.07;;;12.90;99.90;;;;;;5025746;28;25072;-73
2022/10/11 08:14:04;;;;;;;14.95;4.18;;;13.10;99.90;;;;;;5028796;28;25235;-73
2022/10/11 08:16:30;;;;;;;9.23;3.92;;;13.10;99.90;;;;;;5030369;28;25078;-72
2022/10/11 08:18:56;;;;;;;12.57;4.40;;;13.20;99.90;;;;;;5030102;28;25074;-72
2022/10/11 08:21:21;;;;;;;10.23;4.03;;;13.40;99.90;;;;;;5036342;28;25056;-73
2022/10/11 08:23:47;;;;;;;11.57;3.80;;;13.60;99.90;;;;;;5035020;28;25069;-73
2022/10/11 08:26:13;;;;;;;10.15;3.85;;;13.60;99.90;;;;;;5028632;28;25064;-73
2022/10/11 08:28:38;;;;;;;17.52;4.28;;;13.80;99.90;;;;;;5011622;28;25053;-73
2022/10/11 08:31:04;;;;;;;8.57;3.20;;;14.00;99.90;;;;;;5029693;28;25153;-72
2022/10/11 08:33:30;;;;;;;14.65;3.05;;;14.30;99.90;;;;;;5028652;28;25142;-73
2022/10/11 08:35:57;;;;;;;17.23;3.47;;;14.50;99.90;;;;;;5028725;28;25066;-74
2022/10/11 08:38:23;;;;;;;9.00;3.08;;;14.50;99.90;;;;;;5032269;28;25130;-73
2022/10/11 08:40:54;;;;;;;9.27;2.88;;;14.50;99.90;;;;;;5033085;28;25062;-71
2022/10/11 08:43:49;;;;;;;13.90;3.30;;;14.30;99.90;;;;;;5027262;28;25129;-74
2022/10/11 08:46:20;;;;;;;12.93;4.20;;;14.30;99.90;;;;;;5027006;28;25074;-73
2022/10/11 08:48:49;;;;;;;10.15;2.80;;;14.40;99.90;;;;;;5031698;28;25086;-74
2022/10/11 08:51:20;;;;;;;10.85;2.55;;;14.40;99.90;;;;;;5032041;28;25100;-72
2022/10/11 08:53:57;;;;;;;14.32;2.72;;;14.40;99.90;;;;;;5030802;28;25077;-74
2022/10/11 08:56:24;;;;;;;9.55;2.50;;;14.50;99.90;;;;;;5033279;28;25106;-73
2022/10/11 08:59:03;;;;;;;10.05;2.25;;;14.40;99.90;;;;;;5028377;28;25048;-74
2022/10/11 09:01:30;;;;;;;8.30;2.10;;;14.50;99.90;;;;;;5022517;28;25138;-71
2022/10/11 09:03:58;;;;;;;13.25;2.70;;;14.70;99.90;;;;;;5027592;28;25153;-72
2022/10/11 09:06:35;;;;;;;6.05;2.05;;;14.90;99.90;;;;;;5031638;28;25069;-78
2022/10/11 09:09:23;;;;;;;11.77;2.65;;;14.70;99.90;;;;;;5020351;28;25047;-74
2022/10/11 09:12:04;;;;;;;4.07;2.33;;;14.70;99.90;;;;;;5030746;28;25049;-74
2022/10/11 09:14:51;;;;;;;9.80;2.67;;;14.60;99.90;;;;;;5011940;28;25093;-71
2022/10/11 09:17:44;;;;;;;7.20;2.03;;;14.50;99.90;;;;;;5030799;28;25065;-73
2022/10/11 09:20:28;;;;;;;9.15;2.42;;;14.50;99.90;;;;;;5022290;28;25121;-73
2022/10/11 09:23:10;;;;;;;7.63;2.05;;;14.50;99.90;;;;;;5022718;28;25127;-73
2022/10/11 09:25:51;;;;;;;5.95;2.22;;;14.60;99.90;;;;;;5007906;28;25102;-73
2022/10/11 09:28:42;;;;;;;5.43;1.73;;;14.40;99.90;;;;;;5025775;28;25070;-73
2022/10/11 09:31:09;;;;;;;8.48;1.45;;;14.70;99.90;;;;;;5025913;28;25066;-73
2022/10/11 09:33:37;;;;;;;10.82;2.05;;;14.80;99.90;;;;;;5030080;28;25053;-73
2022/10/11 09:36:13;;;;;;;10.70;1.95;;;15.00;99.90;;;;;;5029410;28;25080;-75
2022/10/11 09:38:58;;;;;;;9.63;2.10;;;15.10;99.90;;;;;;5026993;28;25140;-72
2022/10/11 09:41:51;;;;;;;9.98;1.90;;;15.20;99.90;;;;;;5029724;28;25107;-74
2022/10/11 09:44:24;;;;;;;;;;;15.40;99.90;;;;;;5024782;28;25071;-73
2022/10/11 09:46:53;;;;;;;6.30;1.35;;;15.40;99.90;;;;;;5029723;28;25052;-72
2022/10/11 09:49:21;;;;;;;8.98;1.63;;;15.50;99.90;;;;;;5024824;28;25069;-74
2022/10/11 09:51:54;;;;;;;4.65;1.23;;;15.50;99.90;;;;;;5031262;28;25071;-73
2022/10/11 09:54:40;;;;;;;8.55;2.42;;;15.40;99.90;;;;;;5023253;28;25055;-72
2022/10/11 09:57:16;;;;;;;6.00;1.42;;;15.30;99.90;;;;;;5031674;28;25069;-73
2022/10/11 09:59:42;;;;;;;7.32;1.48;;;15.30;99.90;;;;;;5030175;28;25064;-76
2022/10/11 10:02:14;;;;;;;4.85;1.30;;;15.30;99.90;;;;;;5030382;28;25080;-73
2022/10/11 10:05:05;;;;;;;10.65;1.35;;;15.30;99.90;;;;;;5025382;28;25111;-73
2022/10/11 10:07:33;;;;;;;6.13;1.42;;;14.90;99.90;;;;;;5026988;28;25110;-72
2022/10/11 10:10:26;;;;;;;5.95;1.23;;;14.60;99.90;;;;;;5030253;28;25068;-73
2022/10/11 10:12:57;;;;;;;4.68;1.52;;;14.70;99.90;;;;;;5025026;28;25063;-73
2022/10/11 10:15:35;;;;;;;8.00;1.85;;;14.90;99.90;;;;;;5027304;28;25173;-73
2022/10/11 10:18:01;;;;;;;7.82;1.42;;;14.90;99.90;;;;;;5004090;28;25129;-75
2022/10/11 10:20:31;;;;;;;8.07;2.00;;;14.90;99.90;;;;;;5027222;28;25071;-73
2022/10/11 10:23:06;;;;;;;8.07;1.63;;;14.80;99.90;;;;;;5021503;28;25144;-73
2022/10/11 10:25:39;;;;;;;7.63;1.90;;;14.90;99.90;;;;;;5029204;28;25082;-73
2022/10/11 10:28:22;;;;;;;7.88;1.75;;;14.80;99.90;;;;;;5030167;28;25069;-73
2022/10/11 10:30:56;;;;;;;5.82;1.63;;;14.40;99.90;;;;;;5029037;28;25059;-72
2022/10/11 10:33:24;;;;;;;10.63;1.83;;;14.50;99.90;;;;;;5025258;28;25085;-72
2022/10/11 10:35:55;;;;;;;5.28;1.63;;;14.70;99.90;;;;;;5026189;28;25069;-72
2022/10/11 10:38:27;;;;;;;4.82;1.92;;;14.90;99.90;;;;;;5027479;28;25074;-72
2022/10/11 10:40:57;;;;;;;;;;;15.10;99.90;;;;;;5031191;28;25116;-73
2022/10/11 10:43:27;;;;;;;9.80;1.50;;;15.20;99.90;;;;;;5036089;28;25055;-72
2022/10/11 10:46:25;;;;;;;9.98;2.05;;;15.20;99.90;;;;;;5032379;28;25062;-72
2022/10/11 10:49:24;;;;;;;10.93;1.85;;;15.30;99.90;;;;;;5011940;28;25052;-73
2022/10/11 10:52:04;;;;;;;11.25;1.58;;;15.00;99.90;;;;;;5023613;28;25082;-73
2022/10/11 10:54:48;;;;;;;4.00;1.08;;;15.30;99.90;;;;;;5011789;28;25175;-72
2022/10/11 10:57:51;;;;;;;7.90;1.35;;;15.40;99.90;;;;;;5026020;28;25064;-72
2022/10/11 11:00:21;;;;;;;;;;;15.10;99.90;;;;;;5024627;28;25216;-72
2022/10/11 11:03:01;;;;;;;7.28;1.67;;;15.10;99.90;;;;;;5027588;28;25152;-71
2022/10/11 11:05:47;;;;;;;6.15;1.40;;;15.20;99.90;;;;;;5011126;28;25073;-74
2022/10/11 11:08:21;;;;;;;6.97;1.58;;;15.40;99.90;;;;;;5025062;28;24855;-71
2022/10/11 11:11:25;;;;;;;5.78;1.70;;;15.40;99.90;;;;;;5005004;28;25059;-72
2022/10/11 11:14:01;;;;;;;4.47;1.17;;;15.60;99.90;;;;;;5023588;28;25087;-72
2022/10/11 11:16:33;;;;;;;4.10;1.38;;;15.70;99.90;;;;;;5023142;28;25055;-72
2022/10/11 11:19:31;;;;;;;6.60;1.23;;;15.50;99.90;;;;;;5020893;28;25076;-72
2022/10/11 11:22:05;;;;;;;6.43;1.50;;;15.20;99.90;;;;;;4997362;28;25071;-72
2022/10/11 11:24:49;;;;;;;6.25;1.25;;;15.20;99.90;;;;;;5009537;28;25075;-72
2022/10/11 11:27:33;;;;;;;10.80;1.90;;;15.40;99.90;;;;;;5024108;28;25108;-72
2022/10/11 11:30:12;;;;;;;9.65;1.70;;;15.60;99.90;;;;;;5019176;28;25084;-71
2022/10/11 11:33:03;;;;;;;8.38;1.63;;;15.40;99.90;;;;;;5009624;28;25087;-72
2022/10/11 11:35:42;;;;;;;8.20;1.10;;;15.20;99.90;;;;;;5009237;28;25072;-70
2022/10/11 11:38:19;;;;;;;5.70;1.33;;;14.90;99.90;;;;;;5026840;28;25062;-72
2022/10/11 11:40:53;;;;;;;6.07;2.97;;;14.90;99.90;;;;;;5020362;28;25067;-72
2022/10/11 11:43:37;;;;;;;9.88;1.85;;;15.30;99.90;;;;;;5027871;28;25063;-71
2022/10/11 11:46:25;;;;;;;11.07;1.92;;;15.60;99.90;;;;;;5021648;28;25063;-70
2022/10/11 11:48:54;;;;;;;8.02;1.38;;;15.60;99.90;;;;;;5028925;28;25144;-74
2022/10/11 11:51:26;;;;;;;15.48;1.75;;;15.70;99.90;;;;;;5025633;28;25165;-71
2022/10/11 11:54:19;;;;;;;7.50;1.40;;;15.80;99.90;;;;;;5028989;28;25099;-71
2022/10/11 11:56:44;;;;;;;;;;;15.90;99.90;;;;;;5025895;28;25060;-72
2022/10/11 11:59:23;;;;;;;9.50;1.45;;;16.00;99.90;;;;;;5027732;28;24069;-72
2022/10/11 12:02:09;;;;;;;4.88;1.42;;;16.20;99.90;;;;;;5029006;28;25053;-72
2022/10/11 12:04:38;;;;;;;14.98;3.00;;;16.20;99.90;;;;;;5013662;28;25078;-72
2022/10/11 12:07:10;;;;;;;8.35;1.52;;;16.10;99.90;;;;;;5029642;28;25053;-72
2022/10/11 12:09:37;;;;;;;7.85;1.38;;;16.50;99.90;;;;;;5027174;28;25045;-72
2022/10/11 12:12:07;;;;;;;4.05;1.42;;;17.10;99.90;;;;;;5029282;28;25134;-71
2022/10/11 12:14:37;;;;;;;5.82;1.58;;;18.10;99.90;;;;;;5028794;28;25098;-71
2022/10/11 12:17:18;;;;;;;12.63;1.95;;;18.50;99.90;;;;;;5010062;28;25090;-70
2022/10/11 12:20:01;;;;;;;6.67;1.60;;;18.00;99.90;;;;;;5028565;28;25092;-71
2022/10/11 12:22:27;;;;;;;8.75;1.60;;;18.40;99.90;;;;;;5030524;28;25135;-72
2022/10/11 12:24:54;;;;;;;5.20;1.75;;;18.60;99.90;;;;;;5028888;28;25082;-71
2022/10/11 12:27:42;;;;;;;6.50;2.03;;;19.00;99.90;;;;;;5033070;28;25072;-71
2022/10/11 12:30:42;;;;;;;3.63;1.30;;;19.70;99.90;;;;;;5035398;28;25090;-72
2022/10/11 12:33:19;;;;;;;6.25;1.45;;;19.30;99.90;;;;;;5017973;28;25093;-70
2022/10/11 12:35:51;;;;;;;13.30;2.17;;;18.50;99.90;;;;;;5024683;28;25101;-71
2022/10/11 12:38:25;;;;;;;7.13;1.90;;;17.60;99.90;;;;;;5030500;28;25067;-72
2022/10/11 12:40:59;;;;;;;5.38;1.23;;;17.20;99.90;;;;;;5024831;28;25077;-71
2022/10/11 12:43:35;;;;;;;6.35;1.50;;;16.90;99.90;;;;;;5023733;28;25107;-71
2022/10/11 12:46:39;;;;;;;4.75;1.05;;;17.20;99.90;;;;;;5003563;28;25092;-72
2022/10/11 12:49:04;;;;;;;11.82;1.70;;;18.00;99.90;;;;;;4940602;28;25080;-70
2022/10/11 12:51:49;;;;;;;1.55;1.00;;;17.90;99.90;;;;;;4994144;28;25137;-71
2022/10/11 12:54:37;;;;;;;5.45;1.25;;;17.60;99.90;;;;;;5027036;28;25086;-70
2022/10/11 12:57:27;;;;;;;10.82;1.30;;;16.80;99.90;;;;;;5028632;28;25078;-72
2022/10/11 12:59:53;;;;;;;9.65;1.85;;;16.40;99.90;;;;;;5035339;28;25066;-71
2022/10/11 13:02:39;;;;;;;3.67;1.45;;;16.30;99.90;;;;;;5036452;28;25072;-70
2022/10/11 13:05:30;;;;;;;10.20;1.20;;;16.70;99.90;;;;;;5029985;28;24696;-71
2022/10/11 13:08:02;;;;;;;8.30;1.70;;;17.50;99.90;;;;;;5014923;28;25057;-71
2022/10/11 13:10:40;;;;;;;9.82;1.52;;;17.50;99.90;;;;;;5026503;28;25072;-71